createdAt,value
2022-09-11T00:05:00.252Z,9.52
2022-09-11T00:10:07.731Z,11.50
2022-09-11T00:15:12.300Z,7.35
2022-09-11T00:20:16.293Z,9.45
2022-09-11T00:25:21.532Z,8.15
2022-09-11T00:30:25.341Z,10.02
2022-09-11T00:35:30.305Z,6.35
2022-09-11T00:40:35.713Z,5.70
2022-09-11T00:45:42.126Z,8.90
2022-09-11T00:50:46.091Z,5.95
2022-09-11T00:55:54.112Z,8.00
2022-09-11T01:00:58.845Z,6.43
2022-09-11T01:06:03.835Z,7.10
2022-09-11T01:16:49.248Z,7.22
2022-09-11T01:22:11.649Z,8.50
2022-09-11T01:27:40.144Z,8.20
2022-09-11T01:33:07.569Z,6.97
2022-09-11T01:38:18.649Z,8.88
2022-09-11T01:43:29.342Z,6.75
2022-09-11T01:48:39.623Z,8.77
2022-09-11T01:53:50.370Z,9.13
2022-09-11T01:59:01.058Z,10.18
2022-09-11T02:04:10.775Z,11.15
2022-09-11T02:09:19.704Z,9.75
2022-09-11T02:14:29.709Z,8.15
2022-09-11T02:19:34.007Z,10.27
2022-09-11T02:24:38.156Z,10.93
2022-09-11T02:29:44.066Z,10.60
2022-09-11T02:34:49.096Z,10.98
2022-09-11T02:40:08.814Z,10.55
2022-09-11T02:45:28.809Z,10.80
2022-09-11T02:50:42.696Z,8.63
2022-09-11T02:56:03.256Z,11.77
2022-09-11T03:01:11.984Z,12.05
2022-09-11T03:06:19.666Z,9.77
2022-09-11T03:11:23.761Z,15.23
2022-09-11T03:16:29.357Z,11.30
2022-09-11T03:21:35.175Z,12.18
2022-09-11T03:26:39.286Z,11.98
2022-09-11T03:31:45.079Z,13.43
2022-09-11T03:41:54.335Z,15.10
2022-09-11T03:47:01.431Z,10.43
2022-09-11T03:52:05.695Z,11.07
2022-09-11T03:57:09.787Z,9.98
2022-09-11T04:02:16.646Z,10.48
2022-09-11T04:07:21.216Z,12.75
2022-09-11T04:12:26.266Z,10.10
2022-09-11T04:17:32.131Z,11.48
2022-09-11T04:22:36.141Z,19.10
2022-09-11T04:27:40.326Z,14.82
2022-09-11T04:32:50.436Z,17.90
2022-09-11T04:37:54.388Z,14.23
2022-09-11T04:42:58.653Z,17.20
2022-09-11T04:48:04.420Z,13.77
2022-09-11T04:53:08.517Z,15.73
2022-09-11T04:58:12.351Z,14.82
2022-09-11T05:03:18.106Z,13.95
2022-09-11T05:08:25.479Z,15.55
2022-09-11T05:13:36.044Z,14.45
2022-09-11T05:18:45.289Z,14.60
2022-09-11T05:23:50.809Z,18.95
2022-09-11T05:28:56.627Z,16.17
2022-09-11T05:39:10.591Z,15.93
2022-09-11T05:44:16.000Z,12.10
2022-09-11T05:49:21.847Z,16.20
2022-09-11T05:54:26.783Z,10.85
2022-09-11T05:59:31.552Z,10.57
2022-09-11T06:04:36.911Z,9.93
2022-09-11T06:09:40.900Z,11.57
2022-09-11T06:14:45.042Z,12.65
2022-09-11T06:19:51.733Z,8.93
2022-09-11T06:24:55.889Z,10.52
2022-09-11T06:30:00.376Z,9.70
2022-09-11T06:35:06.123Z,11.73
2022-09-11T06:40:13.472Z,11.63
2022-09-11T06:45:23.705Z,10.38
2022-09-11T06:50:29.003Z,12.52
2022-09-11T06:55:43.313Z,14.33
2022-09-11T07:00:52.007Z,13.80
2022-09-11T07:05:57.477Z,15.90
2022-09-11T07:11:05.196Z,13.43
2022-09-11T07:16:13.519Z,14.35
2022-09-11T07:21:23.353Z,11.18
2022-09-11T07:26:32.536Z,13.05
2022-09-11T07:31:42.824Z,16.90
2022-09-11T07:36:51.857Z,15.68
2022-09-11T07:41:57.589Z,12.35
2022-09-11T07:47:06.712Z,12.55
2022-09-11T07:52:18.518Z,13.13
2022-09-11T07:57:28.104Z,13.05
2022-09-11T08:02:32.641Z,9.85
2022-09-11T08:07:37.845Z,10.35
2022-09-11T08:12:43.324Z,10.18
2022-09-11T08:17:47.331Z,12.77
2022-09-11T08:22:52.780Z,11.20
2022-09-11T08:27:56.564Z,15.10
2022-09-11T08:33:01.829Z,14.50
2022-09-11T08:38:07.389Z,14.90
2022-09-11T08:43:22.436Z,12.45
2022-09-11T08:48:37.210Z,10.00
2022-09-11T08:53:43.439Z,13.55
2022-09-11T08:59:04.635Z,11.10
2022-09-11T09:04:26.250Z,10.25
2022-09-11T09:09:42.434Z,11.88
2022-09-11T09:20:06.937Z,8.73
2022-09-11T09:25:21.194Z,10.15
2022-09-11T09:30:27.602Z,10.80
2022-09-11T09:35:40.587Z,7.85
2022-09-11T09:40:56.095Z,8.77
2022-09-11T09:46:11.638Z,7.22
2022-09-11T09:51:15.919Z,8.05
2022-09-11T09:56:24.413Z,8.68
2022-09-11T10:01:46.033Z,8.50
2022-09-11T10:06:53.152Z,7.63
2022-09-11T10:12:04.289Z,7.60
2022-09-11T10:17:20.459Z,8.32
2022-09-11T10:22:32.788Z,10.43
2022-09-11T10:27:44.653Z,13.48
2022-09-11T10:32:49.240Z,10.20
2022-09-11T10:38:06.615Z,14.27
2022-09-11T10:43:24.699Z,8.13
2022-09-11T10:48:28.947Z,9.13
2022-09-11T10:53:37.576Z,9.60
2022-09-11T10:58:47.604Z,8.30
2022-09-11T11:03:52.328Z,8.27
2022-09-11T11:14:32.287Z,9.07
2022-09-11T11:19:56.869Z,10.45
2022-09-11T11:25:14.593Z,7.95
2022-09-11T11:30:22.161Z,7.63
2022-09-11T11:35:33.863Z,9.40
2022-09-11T11:40:43.684Z,11.43
2022-09-11T11:45:53.809Z,9.32
2022-09-11T11:51:03.673Z,10.15
2022-09-11T11:56:15.898Z,4.35
2022-09-11T12:01:25.614Z,4.55
2022-09-11T12:06:30.194Z,4.35
2022-09-11T12:11:35.033Z,9.17
2022-09-11T12:16:40.531Z,4.23
2022-09-11T12:22:06.681Z,4.50
2022-09-11T12:27:52.340Z,3.22
2022-09-11T12:33:01.280Z,8.10
2022-09-11T12:38:22.003Z,5.22
2022-09-11T12:43:46.579Z,3.78
2022-09-11T12:49:17.845Z,3.40
2022-09-11T12:54:24.295Z,6.18
2022-09-11T12:59:32.704Z,2.72
2022-09-11T13:04:38.141Z,3.03
2022-09-11T13:09:48.098Z,4.63
2022-09-11T13:14:53.374Z,2.92
2022-09-11T13:20:21.659Z,2.65
2022-09-11T13:25:28.128Z,2.42
2022-09-11T13:30:32.899Z,3.67
2022-09-11T13:35:40.546Z,9.07
2022-09-11T13:40:49.896Z,6.40
2022-09-11T13:46:16.971Z,6.55
2022-09-11T13:51:25.838Z,7.55
2022-09-11T13:57:05.853Z,4.88
2022-09-11T14:02:28.783Z,5.68
2022-09-11T14:07:42.565Z,4.70
2022-09-11T14:12:53.844Z,3.88
2022-09-11T14:18:02.021Z,4.13
2022-09-11T14:23:09.086Z,7.68
2022-09-11T14:28:36.836Z,2.88
2022-09-11T14:33:41.291Z,7.00
2022-09-11T14:38:48.335Z,5.45
2022-09-11T14:43:52.345Z,4.80
2022-09-11T14:48:56.926Z,5.80
2022-09-11T14:54:02.452Z,6.00
2022-09-11T14:59:06.392Z,4.18
2022-09-11T15:04:14.371Z,4.22
2022-09-11T15:09:19.597Z,3.58
2022-09-11T15:14:52.037Z,3.70
2022-09-11T15:19:50.007Z,3.00
2022-09-11T15:24:56.657Z,4.10
2022-09-11T15:30:00.811Z,8.77
2022-09-11T15:35:05.588Z,5.43
2022-09-11T15:40:11.804Z,3.45
2022-09-11T15:45:15.867Z,5.05
2022-09-11T15:50:24.693Z,8.27
2022-09-11T15:55:30.329Z,3.40
2022-09-11T16:05:42.237Z,5.22
2022-09-11T16:10:47.951Z,7.20
2022-09-11T16:16:02.692Z,6.97
2022-09-11T16:21:07.765Z,3.83
2022-09-11T16:26:17.538Z,6.23
2022-09-11T16:31:21.880Z,11.18
2022-09-11T16:36:25.965Z,7.18
2022-09-11T16:41:31.250Z,9.50
2022-09-11T16:46:35.713Z,11.05
2022-09-11T16:51:39.875Z,7.40
2022-09-11T16:56:46.185Z,9.07
2022-09-11T17:01:52.479Z,8.05
2022-09-11T17:06:56.762Z,7.22
2022-09-11T17:12:04.036Z,12.07
2022-09-11T17:17:07.895Z,7.32
2022-09-11T17:22:11.816Z,8.63
2022-09-11T17:27:17.238Z,8.07
2022-09-11T17:37:33.466Z,7.70
2022-09-11T17:42:38.966Z,7.43
2022-09-11T17:52:47.768Z,9.73
2022-09-11T17:57:56.041Z,9.13
2022-09-11T18:03:00.230Z,8.88
2022-09-11T18:08:04.381Z,7.03
2022-09-11T18:13:09.727Z,7.70
2022-09-11T18:18:14.052Z,8.25
2022-09-11T18:23:19.647Z,9.32
2022-09-11T18:28:25.339Z,9.10
2022-09-11T18:33:29.217Z,9.82
2022-09-11T18:38:33.428Z,10.73
2022-09-11T18:43:39.327Z,7.70
2022-09-11T18:48:44.406Z,9.75
2022-09-11T18:53:52.615Z,11.25
2022-09-11T18:59:00.098Z,7.20
2022-09-11T19:04:08.711Z,12.70
2022-09-11T19:09:14.815Z,12.80
2022-09-11T19:14:20.008Z,8.82
2022-09-11T19:19:23.883Z,27.30
2022-09-11T19:24:30.117Z,11.30
2022-09-11T19:29:36.088Z,8.07
2022-09-11T19:34:46.415Z,6.47
2022-09-11T19:39:52.025Z,9.30
2022-09-11T19:44:57.474Z,9.57
2022-09-11T19:50:01.207Z,7.47
2022-09-11T19:55:05.538Z,10.38
2022-09-11T20:00:11.914Z,10.32
2022-09-11T20:05:16.102Z,8.88
2022-09-11T20:10:20.125Z,7.68
2022-09-11T20:15:25.272Z,7.70
2022-09-11T20:20:29.496Z,8.05
2022-09-11T20:25:33.495Z,7.85
2022-09-11T20:30:40.560Z,11.60
2022-09-11T20:35:44.600Z,7.28
2022-09-11T20:40:48.449Z,9.20
2022-09-11T20:45:55.697Z,10.85
2022-09-11T20:51:02.730Z,10.57
2022-09-11T20:56:09.259Z,8.13
2022-09-11T21:01:17.139Z,8.45
2022-09-11T21:06:25.568Z,7.95
2022-09-11T21:11:31.422Z,10.98
2022-09-11T21:16:36.803Z,8.70
2022-09-11T21:21:40.885Z,10.07
2022-09-11T21:26:46.078Z,7.00
2022-09-11T21:31:51.348Z,7.90
2022-09-11T21:36:55.321Z,7.55
2022-09-11T21:41:59.361Z,5.50
2022-09-11T21:47:04.733Z,10.63
2022-09-11T21:52:08.684Z,9.75
2022-09-11T21:57:12.391Z,9.88
2022-09-11T22:02:17.947Z,7.18
2022-09-11T22:07:23.125Z,9.80
2022-09-11T22:12:26.846Z,9.03
2022-09-11T22:17:32.111Z,6.82
2022-09-11T22:22:37.854Z,11.83
2022-09-11T22:32:46.593Z,8.07
2022-09-11T22:37:50.355Z,12.90
2022-09-11T22:42:54.267Z,10.57
2022-09-11T22:47:59.504Z,8.98
2022-09-11T22:58:07.491Z,6.38
2022-09-11T23:03:12.928Z,6.57
2022-09-11T23:08:16.586Z,7.93
2022-09-11T23:13:20.268Z,8.52
2022-09-11T23:18:26.599Z,12.00
2022-09-11T23:23:30.268Z,6.20
2022-09-11T23:28:35.096Z,13.23
2022-09-11T23:33:40.294Z,9.87
2022-09-11T23:38:45.517Z,7.53
2022-09-11T23:43:49.571Z,8.65
2022-09-11T23:48:54.852Z,9.68
2022-09-11T23:53:58.554Z,14.40
2022-09-11T23:59:02.426Z,7.45
